Antakya, Turkey
Current Conditions -  °F | °C
As of 1:50 AM on Saturday 22 Nov 2014 (Local Time) from LTDA Reporting Station
Haze Haze  
Wind Chill:   Ceiling: Unl
Heat Index:   Visibility: 1.9mi
Dew Point:   Wind: 3mph
Humidity: 100%   Direction: 230°SW
Pressure: 29.8"   Gusts: NA
Location:  36.2°N, 36.15°E
Report Text: LTDA 212350Z 23003KT 150V300 3100 BR SCT030TCU 09/09 Q1009
Loading
Personal Weather Stations






























Interactive Weather Map New forecast layout! Learn more

10-Day Weather Forecast

Advertisements
Track Severe Weather on mobile